Terminal Aerodrome Forecast
Issued by NWS Mt. Holly, NJ

Home | Current Version | Previous Version | Text Only | Print | Product List | Glossary On
Versions: 1 2 3 4 5 6 7 8 9 10 11 12 13 14 15 16 17 18
000
FTUS41 KPHI 242320
TAFABE
TAF
KABE 242320Z 2500/2524 12008KT P6SM OVC050
     FM250400 09011G17KT P6SM OVC015
     FM250800 07015G25KT 3SM SHRA BR OVC008
      TEMPO 2510/2514 1SM SHRA OVC005
     FM251400 11008KT 5SM -SHRA OVC008
     FM251700 13007KT P6SM OVC008
     FM252100 13005KT P6SM OVC015 PROB30 2521/2524 4SM TSRA
      BKN015CB=

USA.gov is the U.S. government's official web portal to all federal, state and local government web resources and services.